createdAt,value
2023-05-05T00:03:57.034Z,95.40
2023-05-05T00:09:00.078Z,95.64
2023-05-05T00:14:01.691Z,95.69
2023-05-05T00:19:03.270Z,95.19
2023-05-05T00:24:06.716Z,95.81
2023-05-05T00:29:08.364Z,95.93
2023-05-05T00:34:10.005Z,96.09
2023-05-05T00:39:12.900Z,96.49
2023-05-05T00:44:14.692Z,97.66
2023-05-05T00:49:16.507Z,99.04
2023-05-05T00:54:19.580Z,99.26
2023-05-05T00:59:21.268Z,100.00
2023-05-05T01:04:25.552Z,100.00
2023-05-05T01:09:39.632Z,100.00
2023-05-05T01:14:54.720Z,100.00
2023-05-05T01:20:10.768Z,100.00
2023-05-05T01:25:46.759Z,100.00
2023-05-05T01:31:06.318Z,100.00
2023-05-05T01:36:25.011Z,100.00
2023-05-05T01:41:30.787Z,100.00
2023-05-05T01:46:33.961Z,100.00
2023-05-05T01:51:40.102Z,100.00
2023-05-05T01:56:42.976Z,100.00
2023-05-05T02:01:46.319Z,100.00
2023-05-05T02:06:50.861Z,100.00
2023-05-05T02:11:53.093Z,100.00
2023-05-05T02:16:58.897Z,100.00
2023-05-05T02:22:09.829Z,100.00
2023-05-05T02:27:12.049Z,100.00
2023-05-05T02:32:27.660Z,100.00
2023-05-05T02:37:36.149Z,100.00
2023-05-05T02:42:43.890Z,100.00
2023-05-05T02:47:45.445Z,100.00
2023-05-05T02:52:50.031Z,100.00
2023-05-05T02:58:00.463Z,100.00
2023-05-05T03:03:10.400Z,100.00
2023-05-05T03:08:20.326Z,100.00
2023-05-05T03:13:25.316Z,100.00
2023-05-05T03:18:28.952Z,100.00
2023-05-05T03:23:35.064Z,100.00
2023-05-05T03:28:38.474Z,100.00
2023-05-05T03:33:41.192Z,100.00
2023-05-05T03:38:44.153Z,100.00
2023-05-05T03:43:48.146Z,100.00
2023-05-05T03:49:04.856Z,100.00
2023-05-05T03:54:10.163Z,100.00
2023-05-05T03:59:11.804Z,100.00
2023-05-05T04:04:13.521Z,100.00
2023-05-05T04:09:18.836Z,100.00
2023-05-05T04:14:20.458Z,100.00
2023-05-05T04:19:22.110Z,100.00
2023-05-05T04:24:27.303Z,100.00
2023-05-05T04:29:28.853Z,100.00
2023-05-05T04:34:30.443Z,100.00
2023-05-05T04:39:33.504Z,100.00
2023-05-05T04:44:35.250Z,100.00
2023-05-05T04:49:37.056Z,100.00
2023-05-05T04:54:40.093Z,100.00
2023-05-05T04:59:41.686Z,100.00
2023-05-05T05:04:43.273Z,100.00
2023-05-05T05:09:46.348Z,100.00
2023-05-05T05:14:47.960Z,100.00
2023-05-05T05:19:52.164Z,100.00
2023-05-05T05:24:57.576Z,100.00
2023-05-05T05:29:59.229Z,100.00
2023-05-05T05:35:00.802Z,100.00
2023-05-05T05:40:05.311Z,100.00
2023-05-05T05:45:08.446Z,100.00
2023-05-05T05:50:12.862Z,100.00
2023-05-05T05:55:16.036Z,100.00
2023-05-05T06:00:18.184Z,100.00
2023-05-05T06:05:27.024Z,100.00
2023-05-05T06:10:30.290Z,100.00
2023-05-05T06:15:32.107Z,99.30
2023-05-05T06:20:36.023Z,98.81
2023-05-05T06:25:39.161Z,99.00
2023-05-05T06:30:40.728Z,98.00
2023-05-05T06:35:42.389Z,97.85
2023-05-05T06:40:47.658Z,97.26
2023-05-05T06:45:49.325Z,94.65
2023-05-05T06:50:50.937Z,94.68
2023-05-05T06:55:53.924Z,97.19
2023-05-05T07:00:57.578Z,99.79
2023-05-05T07:05:59.175Z,99.45
2023-05-05T07:11:02.191Z,100.00
2023-05-05T07:16:04.424Z,100.00
2023-05-05T07:21:06.127Z,100.00
2023-05-05T07:26:09.243Z,100.00
2023-05-05T07:31:12.261Z,100.00
2023-05-05T07:36:14.142Z,100.00
2023-05-05T07:41:17.097Z,100.00
2023-05-05T07:46:18.739Z,100.00
2023-05-05T07:51:20.369Z,99.82
2023-05-05T07:56:23.594Z,100.00
2023-05-05T08:01:25.248Z,100.00
2023-05-05T08:06:26.904Z,98.19
2023-05-05T08:11:37.276Z,100.00
2023-05-05T08:16:38.862Z,100.00
2023-05-05T08:21:41.491Z,100.00
2023-05-05T08:26:46.771Z,100.00
2023-05-05T08:31:48.575Z,100.00
2023-05-05T08:36:50.258Z,100.00
2023-05-05T08:41:53.233Z,100.00
2023-05-05T08:46:56.384Z,100.00
2023-05-05T08:52:08.899Z,100.00
2023-05-05T08:57:16.252Z,100.00
2023-05-05T09:02:26.788Z,99.78
2023-05-05T09:07:28.588Z,100.00
2023-05-05T09:12:35.184Z,100.00
2023-05-05T09:17:39.539Z,100.00
2023-05-05T09:22:43.246Z,100.00
2023-05-05T09:27:47.701Z,100.00
2023-05-05T09:33:01.884Z,100.00
2023-05-05T09:38:11.272Z,100.00
2023-05-05T09:43:18.330Z,100.00
2023-05-05T09:48:24.757Z,100.00
2023-05-05T09:53:29.378Z,100.00
2023-05-05T09:58:32.632Z,100.00
2023-05-05T10:03:50.045Z,100.00
2023-05-05T10:09:03.099Z,100.00
2023-05-05T10:14:07.631Z,100.00
2023-05-05T10:19:19.404Z,100.00
2023-05-05T10:24:30.490Z,100.00
2023-05-05T10:29:45.471Z,100.00
2023-05-05T10:34:51.475Z,100.00
2023-05-05T10:39:55.218Z,95.08
2023-05-05T10:44:58.292Z,99.64
2023-05-05T10:50:06.218Z,100.00
2023-05-05T10:55:13.653Z,97.05
2023-05-05T11:00:50.648Z,100.00
2023-05-05T11:06:19.291Z,100.00
2023-05-05T11:11:58.519Z,100.00
2023-05-05T11:17:01.689Z,96.75
2023-05-05T11:22:06.142Z,100.00
2023-05-05T11:27:08.059Z,91.69
2023-05-05T11:32:14.792Z,100.00
2023-05-05T11:37:16.622Z,90.32
2023-05-05T11:42:25.878Z,98.11
2023-05-05T11:47:30.854Z,98.88
2023-05-05T11:52:32.548Z,85.10
2023-05-05T11:57:34.148Z,87.01
2023-05-05T12:02:37.157Z,83.21
2023-05-05T12:07:39.062Z,88.80
2023-05-05T12:12:40.836Z,84.34
2023-05-05T12:17:44.008Z,79.98
2023-05-05T12:22:45.617Z,76.80
2023-05-05T12:27:54.400Z,75.09
2023-05-05T12:33:02.502Z,69.71
2023-05-05T12:38:05.474Z,83.08
2023-05-05T12:43:09.390Z,73.62
2023-05-05T12:48:24.492Z,70.79
2023-05-05T12:53:27.356Z,70.79
2023-05-05T12:58:31.081Z,69.70
2023-05-05T13:03:38.774Z,63.07
2023-05-05T13:08:43.660Z,79.55
2023-05-05T13:13:47.256Z,78.66
2023-05-05T13:18:50.698Z,76.30
2023-05-05T13:23:59.116Z,87.26
2023-05-05T13:29:06.680Z,81.03
2023-05-05T13:34:09.775Z,71.77
2023-05-05T13:39:11.571Z,73.74
2023-05-05T13:44:15.316Z,72.03
2023-05-05T13:49:18.397Z,72.59
2023-05-05T13:54:20.034Z,67.57
2023-05-05T13:59:21.734Z,73.62
2023-05-05T14:04:25.062Z,69.83
2023-05-05T14:09:26.837Z,70.46
2023-05-05T14:14:30.618Z,69.30
2023-05-05T14:19:33.809Z,68.72
2023-05-05T14:24:37.144Z,78.19
2023-05-05T14:29:38.949Z,82.97
2023-05-05T14:34:41.913Z,82.79
2023-05-05T14:39:43.544Z,96.11
2023-05-05T14:44:47.627Z,97.03
2023-05-05T14:49:50.540Z,100.00
2023-05-05T14:54:52.123Z,100.00
2023-05-05T14:59:53.718Z,100.00
2023-05-05T15:04:56.744Z,100.00
2023-05-05T15:10:00.517Z,100.00
2023-05-05T15:15:04.868Z,100.00
2023-05-05T15:20:08.936Z,100.00
2023-05-05T15:25:11.309Z,100.00
2023-05-05T15:30:14.033Z,100.00
2023-05-05T15:35:17.107Z,100.00
2023-05-05T15:40:18.982Z,100.00
2023-05-05T15:45:20.761Z,100.00
2023-05-05T15:50:23.828Z,100.00
2023-05-05T15:55:25.802Z,100.00
2023-05-05T16:00:27.606Z,100.00
2023-05-05T16:05:32.746Z,100.00
2023-05-05T16:10:34.332Z,100.00
2023-05-05T16:15:47.826Z,100.00
2023-05-05T16:20:50.847Z,100.00
2023-05-05T16:25:52.508Z,100.00
2023-05-05T16:30:54.174Z,100.00
2023-05-05T16:35:57.190Z,100.00
2023-05-05T16:41:01.610Z,100.00
2023-05-05T16:46:18.596Z,100.00
2023-05-05T16:51:28.863Z,100.00
2023-05-05T16:56:32.913Z,100.00
2023-05-05T17:01:36.716Z,100.00
2023-05-05T17:06:39.951Z,100.00
2023-05-05T17:11:41.642Z,100.00
2023-05-05T17:16:50.656Z,100.00
2023-05-05T17:27:56.878Z,100.00
2023-05-05T17:33:07.239Z,100.00
2023-05-05T17:38:08.919Z,100.00
2023-05-05T17:43:11.929Z,100.00
2023-05-05T17:48:13.621Z,100.00
2023-05-05T17:53:15.284Z,100.00
2023-05-05T17:58:18.202Z,100.00
2023-05-05T18:03:20.244Z,100.00
2023-05-05T18:08:21.954Z,100.00
2023-05-05T18:13:27.567Z,100.00
2023-05-05T18:18:36.282Z,100.00
2023-05-05T18:23:38.327Z,100.00
2023-05-05T18:28:41.520Z,100.00
2023-05-05T18:33:43.783Z,100.00
2023-05-05T18:39:27.044Z,100.00
2023-05-05T18:44:29.983Z,100.00
2023-05-05T18:49:31.779Z,100.00
2023-05-05T18:54:33.984Z,100.00
2023-05-05T18:59:40.270Z,100.00
2023-05-05T19:04:42.488Z,100.00
2023-05-05T19:09:44.118Z,100.00
2023-05-05T19:14:47.331Z,100.00
2023-05-05T19:20:10.078Z,100.00
2023-05-05T19:25:12.141Z,100.00
2023-05-05T19:30:15.545Z,100.00
2023-05-05T19:35:19.999Z,100.00
2023-05-05T19:40:21.877Z,100.00
2023-05-05T19:45:25.037Z,100.00
2023-05-05T20:02:36.779Z,100.00
2023-05-05T20:07:41.907Z,100.00
2023-05-05T20:12:45.944Z,100.00
2023-05-05T20:17:49.328Z,100.00
2023-05-05T20:22:51.005Z,100.00
2023-05-05T20:27:52.628Z,100.00
2023-05-05T20:32:55.689Z,100.00
2023-05-05T20:37:57.346Z,100.00
2023-05-05T20:42:59.329Z,100.00
2023-05-05T20:54:05.444Z,100.00
2023-05-05T20:59:06.987Z,100.00
2023-05-05T21:04:08.671Z,100.00
2023-05-05T21:09:11.833Z,100.00
2023-05-05T21:14:13.416Z,100.00
2023-05-05T21:19:15.150Z,100.00
2023-05-05T21:24:20.761Z,100.00
2023-05-05T21:29:22.448Z,100.00
2023-05-05T21:34:24.211Z,100.00
2023-05-05T21:39:29.735Z,100.00
2023-05-05T21:44:34.067Z,100.00
2023-05-05T21:49:35.769Z,100.00
2023-05-05T21:54:41.393Z,100.00
2023-05-05T21:59:43.034Z,100.00
2023-05-05T22:04:44.710Z,100.00
2023-05-05T22:09:50.278Z,100.00
2023-05-05T22:14:54.025Z,100.00
2023-05-05T22:19:55.706Z,100.00
2023-05-05T22:25:01.017Z,100.00
2023-05-05T22:30:02.717Z,100.00
2023-05-05T22:35:05.304Z,100.00
2023-05-05T22:40:09.489Z,100.00
2023-05-05T22:45:11.609Z,100.00
2023-05-05T22:50:13.364Z,100.00
2023-05-05T22:55:16.379Z,100.00
2023-05-05T23:00:18.339Z,100.00
2023-05-05T23:05:20.171Z,100.00
2023-05-05T23:10:23.148Z,100.00
2023-05-05T23:15:24.725Z,100.00
2023-05-05T23:20:26.855Z,100.00
2023-05-05T23:25:36.971Z,100.00
2023-05-05T23:30:38.703Z,100.00
2023-05-05T23:35:40.376Z,100.00
2023-05-05T23:40:45.568Z,100.00
2023-05-05T23:45:47.229Z,100.00
2023-05-05T23:50:49.024Z,100.00
2023-05-05T23:55:54.265Z,100.00
